sensor_id;sensor_type;location;lat;lon;timestamp;P1;durP1;ratioP1;P2;durP2;ratioP2
65375;SDS011;51976;47.332;9.404;2023-04-24T00:01:11;0.43;;;0.20;;
65375;SDS011;51976;47.332;9.404;2023-04-24T00:03:37;0.88;;;0.20;;
65375;SDS011;51976;47.332;9.404;2023-04-24T00:06:04;0.88;;;0.28;;
65375;SDS011;51976;47.332;9.404;2023-04-24T00:08:31;0.60;;;0.10;;
65375;SDS011;51976;47.332;9.404;2023-04-24T00:10:57;0.63;;;0.40;;
65375;SDS011;51976;47.332;9.404;2023-04-24T00:13:23;0.70;;;0.30;;
65375;SDS011;51976;47.332;9.404;2023-04-24T00:15:49;1.80;;;0.10;;
65375;SDS011;51976;47.332;9.404;2023-04-24T00:18:14;0.25;;;0.20;;
65375;SDS011;51976;47.332;9.404;2023-04-24T00:20:40;1.23;;;0.22;;
65375;SDS011;51976;47.332;9.404;2023-04-24T00:23:05;0.40;;;0.20;;
65375;SDS011;51976;47.332;9.404;2023-04-24T00:25:31;0.43;;;0.20;;
65375;SDS011;51976;47.332;9.404;2023-04-24T00:27:56;0.52;;;0.20;;
65375;SDS011;51976;47.332;9.404;2023-04-24T00:30:22;0.22;;;0.13;;
65375;SDS011;51976;47.332;9.404;2023-04-24T00:32:47;0.85;;;0.20;;
65375;SDS011;51976;47.332;9.404;2023-04-24T00:35:13;0.55;;;0.20;;
65375;SDS011;51976;47.332;9.404;2023-04-24T00:37:39;0.10;;;0.10;;
65375;SDS011;51976;47.332;9.404;2023-04-24T00:40:05;0.88;;;0.10;;
65375;SDS011;51976;47.332;9.404;2023-04-24T00:42:31;0.28;;;0.20;;
65375;SDS011;51976;47.332;9.404;2023-04-24T00:44:57;0.17;;;0.08;;
65375;SDS011;51976;47.332;9.404;2023-04-24T00:47:24;0.85;;;0.20;;
65375;SDS011;51976;47.332;9.404;2023-04-24T00:49:50;1.15;;;0.50;;
65375;SDS011;51976;47.332;9.404;2023-04-24T00:52:15;1.23;;;0.10;;
65375;SDS011;51976;47.332;9.404;2023-04-24T00:54:43;2.05;;;0.30;;
65375;SDS011;51976;47.332;9.404;2023-04-24T00:57:10;0.47;;;0.22;;
65375;SDS011;51976;47.332;9.404;2023-04-24T00:59:36;0.60;;;0.30;;
65375;SDS011;51976;47.332;9.404;2023-04-24T01:02:01;0.80;;;0.50;;
65375;SDS011;51976;47.332;9.404;2023-04-24T01:04:27;1.02;;;0.40;;
65375;SDS011;51976;47.332;9.404;2023-04-24T01:06:53;1.25;;;0.40;;
65375;SDS011;51976;47.332;9.404;2023-04-24T01:09:23;1.40;;;0.30;;
65375;SDS011;51976;47.332;9.404;2023-04-24T01:11:50;0.88;;;0.40;;
65375;SDS011;51976;47.332;9.404;2023-04-24T01:14:16;0.82;;;0.47;;
65375;SDS011;51976;47.332;9.404;2023-04-24T01:16:41;1.05;;;0.40;;
65375;SDS011;51976;47.332;9.404;2023-04-24T01:19:07;0.80;;;0.50;;
65375;SDS011;51976;47.332;9.404;2023-04-24T01:21:34;1.73;;;0.50;;
65375;SDS011;51976;47.332;9.404;2023-04-24T01:24:02;1.15;;;0.52;;
65375;SDS011;51976;47.332;9.404;2023-04-24T01:26:29;1.30;;;0.43;;
65375;SDS011;51976;47.332;9.404;2023-04-24T01:28:54;0.47;;;0.32;;
65375;SDS011;51976;47.332;9.404;2023-04-24T01:31:21;0.68;;;0.30;;
65375;SDS011;51976;47.332;9.404;2023-04-24T01:33:46;0.70;;;0.30;;
65375;SDS011;51976;47.332;9.404;2023-04-24T01:36:12;0.52;;;0.30;;
65375;SDS011;51976;47.332;9.404;2023-04-24T01:38:39;0.50;;;0.28;;
65375;SDS011;51976;47.332;9.404;2023-04-24T01:41:04;0.80;;;0.30;;
65375;SDS011;51976;47.332;9.404;2023-04-24T01:43:30;0.43;;;0.20;;
65375;SDS011;51976;47.332;9.404;2023-04-24T01:45:56;0.65;;;0.20;;
65375;SDS011;51976;47.332;9.404;2023-04-24T01:48:22;3.20;;;0.47;;
65375;SDS011;51976;47.332;9.404;2023-04-24T01:50:47;0.70;;;0.30;;
65375;SDS011;51976;47.332;9.404;2023-04-24T01:53:12;0.82;;;0.40;;
65375;SDS011;51976;47.332;9.404;2023-04-24T01:55:41;0.40;;;0.13;;
65375;SDS011;51976;47.332;9.404;2023-04-24T01:58:09;1.13;;;0.10;;
65375;SDS011;51976;47.332;9.404;2023-04-24T02:00:34;0.77;;;0.20;;
65375;SDS011;51976;47.332;9.404;2023-04-24T02:03:00;0.40;;;0.10;;
65375;SDS011;51976;47.332;9.404;2023-04-24T02:05:26;0.17;;;0.08;;
65375;SDS011;51976;47.332;9.404;2023-04-24T02:07:52;0.38;;;0.05;;
65375;SDS011;51976;47.332;9.404;2023-04-24T02:10:17;0.10;;;0.00;;
65375;SDS011;51976;47.332;9.404;2023-04-24T02:12:43;1.95;;;0.10;;
65375;SDS011;51976;47.332;9.404;2023-04-24T02:15:09;0.20;;;0.10;;
65375;SDS011;51976;47.332;9.404;2023-04-24T02:17:35;0.43;;;0.43;;
65375;SDS011;51976;47.332;9.404;2023-04-24T02:20:01;0.28;;;0.10;;
65375;SDS011;51976;47.332;9.404;2023-04-24T02:22:27;0.52;;;0.20;;
65375;SDS011;51976;47.332;9.404;2023-04-24T02:24:52;0.05;;;0.00;;
65375;SDS011;51976;47.332;9.404;2023-04-24T02:27:17;0.40;;;0.10;;
65375;SDS011;51976;47.332;9.404;2023-04-24T02:29:43;0.30;;;0.10;;
65375;SDS011;51976;47.332;9.404;2023-04-24T02:32:08;0.52;;;0.13;;
65375;SDS011;51976;47.332;9.404;2023-04-24T02:34:36;1.80;;;0.10;;
65375;SDS011;51976;47.332;9.404;2023-04-24T02:37:02;1.02;;;0.20;;
65375;SDS011;51976;47.332;9.404;2023-04-24T02:39:28;0.00;;;0.00;;
65375;SDS011;51976;47.332;9.404;2023-04-24T02:41:53;0.10;;;0.03;;
65375;SDS011;51976;47.332;9.404;2023-04-24T02:44:19;0.40;;;0.10;;
65375;SDS011;51976;47.332;9.404;2023-04-24T02:46:44;0.50;;;0.20;;
65375;SDS011;51976;47.332;9.404;2023-04-24T02:49:10;0.38;;;0.15;;
65375;SDS011;51976;47.332;9.404;2023-04-24T02:51:37;0.45;;;0.10;;
65375;SDS011;51976;47.332;9.404;2023-04-24T02:54:05;0.45;;;0.20;;
65375;SDS011;51976;47.332;9.404;2023-04-24T02:56:31;0.20;;;0.10;;
65375;SDS011;51976;47.332;9.404;2023-04-24T02:58:56;0.10;;;0.08;;
65375;SDS011;51976;47.332;9.404;2023-04-24T03:01:21;0.55;;;0.20;;
65375;SDS011;51976;47.332;9.404;2023-04-24T03:03:47;0.20;;;0.20;;
65375;SDS011;51976;47.332;9.404;2023-04-24T03:06:12;0.22;;;0.20;;
65375;SDS011;51976;47.332;9.404;2023-04-24T03:08:37;0.82;;;0.28;;
65375;SDS011;51976;47.332;9.404;2023-04-24T03:11:03;0.35;;;0.15;;
65375;SDS011;51976;47.332;9.404;2023-04-24T03:13:28;1.27;;;0.10;;
65375;SDS011;51976;47.332;9.404;2023-04-24T03:15:54;0.57;;;0.10;;
65375;SDS011;51976;47.332;9.404;2023-04-24T03:18:19;0.40;;;0.17;;
65375;SDS011;51976;47.332;9.404;2023-04-24T03:20:45;1.98;;;0.17;;
65375;SDS011;51976;47.332;9.404;2023-04-24T03:23:12;0.25;;;0.10;;
65375;SDS011;51976;47.332;9.404;2023-04-24T03:25:37;1.30;;;0.10;;
65375;SDS011;51976;47.332;9.404;2023-04-24T03:28:03;0.20;;;0.10;;
65375;SDS011;51976;47.332;9.404;2023-04-24T03:30:29;1.80;;;0.22;;
65375;SDS011;51976;47.332;9.404;2023-04-24T03:32:55;1.25;;;0.28;;
65375;SDS011;51976;47.332;9.404;2023-04-24T03:35:20;0.22;;;0.10;;
65375;SDS011;51976;47.332;9.404;2023-04-24T03:37:46;0.15;;;0.05;;
65375;SDS011;51976;47.332;9.404;2023-04-24T03:40:12;0.30;;;0.10;;
65375;SDS011;51976;47.332;9.404;2023-04-24T03:42:37;0.73;;;0.30;;
65375;SDS011;51976;47.332;9.404;2023-04-24T03:45:03;1.02;;;0.40;;
65375;SDS011;51976;47.332;9.404;2023-04-24T03:47:29;0.17;;;0.00;;
65375;SDS011;51976;47.332;9.404;2023-04-24T03:49:54;0.75;;;0.20;;
65375;SDS011;51976;47.332;9.404;2023-04-24T03:52:20;0.20;;;0.10;;
65375;SDS011;51976;47.332;9.404;2023-04-24T03:54:46;0.45;;;0.20;;
65375;SDS011;51976;47.332;9.404;2023-04-24T03:57:11;0.20;;;0.10;;
65375;SDS011;51976;47.332;9.404;2023-04-24T03:59:37;0.30;;;0.10;;
65375;SDS011;51976;47.332;9.404;2023-04-24T04:02:02;0.65;;;0.30;;
65375;SDS011;51976;47.332;9.404;2023-04-24T04:04:27;0.50;;;0.20;;
65375;SDS011;51976;47.332;9.404;2023-04-24T04:06:53;0.73;;;0.10;;
65375;SDS011;51976;47.332;9.404;2023-04-24T04:09:18;1.40;;;0.40;;
65375;SDS011;51976;47.332;9.404;2023-04-24T04:11:44;2.03;;;0.85;;
65375;SDS011;51976;47.332;9.404;2023-04-24T04:14:10;3.30;;;0.95;;
65375;SDS011;51976;47.332;9.404;2023-04-24T04:16:35;1.95;;;0.88;;
65375;SDS011;51976;47.332;9.404;2023-04-24T04:19:03;2.90;;;1.20;;
65375;SDS011;51976;47.332;9.404;2023-04-24T04:21:29;1.98;;;0.90;;
65375;SDS011;51976;47.332;9.404;2023-04-24T04:23:58;2.60;;;1.63;;
65375;SDS011;51976;47.332;9.404;2023-04-24T04:26:24;1.95;;;1.08;;
65375;SDS011;51976;47.332;9.404;2023-04-24T04:28:51;1.83;;;0.50;;
65375;SDS011;51976;47.332;9.404;2023-04-24T04:31:17;0.63;;;0.40;;
65375;SDS011;51976;47.332;9.404;2023-04-24T04:33:43;1.50;;;0.60;;
65375;SDS011;51976;47.332;9.404;2023-04-24T04:36:08;0.57;;;0.45;;
65375;SDS011;51976;47.332;9.404;2023-04-24T04:38:34;2.22;;;0.75;;
65375;SDS011;51976;47.332;9.404;2023-04-24T04:41:00;1.42;;;0.80;;
65375;SDS011;51976;47.332;9.404;2023-04-24T04:43:26;1.30;;;0.50;;
65375;SDS011;51976;47.332;9.404;2023-04-24T04:45:51;1.95;;;0.80;;
65375;SDS011;51976;47.332;9.404;2023-04-24T04:48:17;1.15;;;0.50;;
65375;SDS011;51976;47.332;9.404;2023-04-24T04:50:43;1.20;;;0.45;;
65375;SDS011;51976;47.332;9.404;2023-04-24T04:53:09;1.23;;;0.70;;
65375;SDS011;51976;47.332;9.404;2023-04-24T04:55:35;1.20;;;0.45;;
65375;SDS011;51976;47.332;9.404;2023-04-24T04:58:03;0.77;;;0.30;;
65375;SDS011;51976;47.332;9.404;2023-04-24T05:00:29;0.40;;;0.20;;
65375;SDS011;51976;47.332;9.404;2023-04-24T05:03:00;0.77;;;0.35;;
65375;SDS011;51976;47.332;9.404;2023-04-24T05:05:28;0.43;;;0.20;;
65375;SDS011;51976;47.332;9.404;2023-04-24T05:07:54;0.30;;;0.15;;
65375;SDS011;51976;47.332;9.404;2023-04-24T05:10:25;0.40;;;0.20;;
65375;SDS011;51976;47.332;9.404;2023-04-24T05:12:50;2.05;;;0.30;;
65375;SDS011;51976;47.332;9.404;2023-04-24T05:15:18;1.10;;;0.32;;
65375;SDS011;51976;47.332;9.404;2023-04-24T05:18:03;0.93;;;0.38;;
65375;SDS011;51976;47.332;9.404;2023-04-24T05:20:32;0.90;;;0.47;;
65375;SDS011;51976;47.332;9.404;2023-04-24T05:23:05;0.30;;;0.20;;
65375;SDS011;51976;47.332;9.404;2023-04-24T05:25:33;2.47;;;0.50;;
65375;SDS011;51976;47.332;9.404;2023-04-24T05:28:09;1.92;;;0.60;;
65375;SDS011;51976;47.332;9.404;2023-04-24T05:30:58;3.13;;;1.02;;
65375;SDS011;51976;47.332;9.404;2023-04-24T05:36:25;1.17;;;0.75;;
65375;SDS011;51976;47.332;9.404;2023-04-24T05:38:52;2.30;;;1.40;;
65375;SDS011;51976;47.332;9.404;2023-04-24T05:41:17;1.92;;;1.08;;
65375;SDS011;51976;47.332;9.404;2023-04-24T05:43:42;0.60;;;0.50;;
65375;SDS011;51976;47.332;9.404;2023-04-24T05:46:08;1.80;;;0.90;;
65375;SDS011;51976;47.332;9.404;2023-04-24T05:48:35;1.42;;;0.43;;
65375;SDS011;51976;47.332;9.404;2023-04-24T05:51:00;2.58;;;1.00;;
65375;SDS011;51976;47.332;9.404;2023-04-24T05:53:26;0.40;;;0.28;;
65375;SDS011;51976;47.332;9.404;2023-04-24T05:55:51;1.17;;;0.60;;
65375;SDS011;51976;47.332;9.404;2023-04-24T05:58:17;1.10;;;0.65;;
65375;SDS011;51976;47.332;9.404;2023-04-24T06:00:44;1.27;;;0.30;;
65375;SDS011;51976;47.332;9.404;2023-04-24T06:03:11;0.50;;;0.30;;
65375;SDS011;51976;47.332;9.404;2023-04-24T06:05:37;0.98;;;0.43;;
65375;SDS011;51976;47.332;9.404;2023-04-24T06:08:06;0.98;;;0.52;;
65375;SDS011;51976;47.332;9.404;2023-04-24T06:10:32;3.38;;;0.65;;
65375;SDS011;51976;47.332;9.404;2023-04-24T06:12:57;0.77;;;0.40;;
65375;SDS011;51976;47.332;9.404;2023-04-24T06:15:26;1.92;;;1.20;;
65375;SDS011;51976;47.332;9.404;2023-04-24T06:17:53;1.45;;;0.68;;
65375;SDS011;51976;47.332;9.404;2023-04-24T06:20:19;2.00;;;0.90;;
65375;SDS011;51976;47.332;9.404;2023-04-24T06:22:44;1.17;;;0.45;;
65375;SDS011;51976;47.332;9.404;2023-04-24T06:25:10;0.88;;;0.47;;
65375;SDS011;51976;47.332;9.404;2023-04-24T06:27:35;1.60;;;1.00;;
65375;SDS011;51976;47.332;9.404;2023-04-24T06:30:04;1.67;;;0.90;;
65375;SDS011;51976;47.332;9.404;2023-04-24T06:32:30;1.67;;;0.90;;
65375;SDS011;51976;47.332;9.404;2023-04-24T06:34:56;1.77;;;0.88;;
65375;SDS011;51976;47.332;9.404;2023-04-24T06:37:21;3.15;;;1.60;;
65375;SDS011;51976;47.332;9.404;2023-04-24T06:39:47;2.38;;;0.85;;
65375;SDS011;51976;47.332;9.404;2023-04-24T06:42:12;2.63;;;1.10;;
65375;SDS011;51976;47.332;9.404;2023-04-24T06:44:38;4.18;;;1.25;;
65375;SDS011;51976;47.332;9.404;2023-04-24T06:47:09;2.33;;;1.23;;
65375;SDS011;51976;47.332;9.404;2023-04-24T06:49:35;5.20;;;3.13;;
65375;SDS011;51976;47.332;9.404;2023-04-24T06:52:02;2.47;;;1.20;;
65375;SDS011;51976;47.332;9.404;2023-04-24T06:54:27;1.05;;;0.40;;
65375;SDS011;51976;47.332;9.404;2023-04-24T06:56:53;1.55;;;0.82;;
65375;SDS011;51976;47.332;9.404;2023-04-24T06:59:20;1.73;;;0.70;;
65375;SDS011;51976;47.332;9.404;2023-04-24T07:01:45;2.15;;;0.90;;
65375;SDS011;51976;47.332;9.404;2023-04-24T07:04:11;3.78;;;1.90;;
65375;SDS011;51976;47.332;9.404;2023-04-24T07:06:40;2.22;;;1.27;;
65375;SDS011;51976;47.332;9.404;2023-04-24T07:09:06;2.40;;;0.60;;
65375;SDS011;51976;47.332;9.404;2023-04-24T07:11:33;0.73;;;0.30;;
65375;SDS011;51976;47.332;9.404;2023-04-24T07:14:02;1.23;;;0.70;;
65375;SDS011;51976;47.332;9.404;2023-04-24T07:16:28;1.38;;;0.43;;
65375;SDS011;51976;47.332;9.404;2023-04-24T07:18:58;0.95;;;0.45;;
65375;SDS011;51976;47.332;9.404;2023-04-24T07:21:29;1.05;;;0.60;;
65375;SDS011;51976;47.332;9.404;2023-04-24T07:23:58;0.98;;;0.55;;
65375;SDS011;51976;47.332;9.404;2023-04-24T07:26:25;1.13;;;0.70;;
65375;SDS011;51976;47.332;9.404;2023-04-24T07:28:52;1.52;;;0.73;;
65375;SDS011;51976;47.332;9.404;2023-04-24T07:31:20;2.08;;;0.88;;
65375;SDS011;51976;47.332;9.404;2023-04-24T07:33:54;4.35;;;0.65;;
65375;SDS011;51976;47.332;9.404;2023-04-24T07:36:22;3.72;;;1.23;;
65375;SDS011;51976;47.332;9.404;2023-04-24T07:38:49;5.28;;;2.13;;
65375;SDS011;51976;47.332;9.404;2023-04-24T07:41:14;6.07;;;3.05;;
65375;SDS011;51976;47.332;9.404;2023-04-24T07:43:40;3.78;;;1.20;;
65375;SDS011;51976;47.332;9.404;2023-04-24T07:46:07;4.07;;;2.33;;
65375;SDS011;51976;47.332;9.404;2023-04-24T07:48:36;5.47;;;2.63;;
65375;SDS011;51976;47.332;9.404;2023-04-24T07:51:04;13.65;;;4.68;;
65375;SDS011;51976;47.332;9.404;2023-04-24T07:53:30;4.90;;;2.80;;
65375;SDS011;51976;47.332;9.404;2023-04-24T07:55:56;9.57;;;4.95;;
65375;SDS011;51976;47.332;9.404;2023-04-24T07:58:21;4.78;;;1.90;;
65375;SDS011;51976;47.332;9.404;2023-04-24T08:00:47;7.50;;;4.00;;
65375;SDS011;51976;47.332;9.404;2023-04-24T08:03:16;4.43;;;1.45;;
65375;SDS011;51976;47.332;9.404;2023-04-24T08:05:44;10.93;;;3.67;;
65375;SDS011;51976;47.332;9.404;2023-04-24T08:08:16;6.35;;;3.17;;
65375;SDS011;51976;47.332;9.404;2023-04-24T08:11:15;6.30;;;3.33;;
65375;SDS011;51976;47.332;9.404;2023-04-24T08:13:43;9.40;;;1.60;;
65375;SDS011;51976;47.332;9.404;2023-04-24T08:16:09;13.50;;;3.05;;
65375;SDS011;51976;47.332;9.404;2023-04-24T08:18:37;5.15;;;2.00;;
65375;SDS011;51976;47.332;9.404;2023-04-24T08:21:03;13.95;;;2.85;;
65375;SDS011;51976;47.332;9.404;2023-04-24T08:23:32;4.15;;;1.85;;
65375;SDS011;51976;47.332;9.404;2023-04-24T08:26:08;4.22;;;1.35;;
65375;SDS011;51976;47.332;9.404;2023-04-24T08:28:40;3.17;;;0.85;;
65375;SDS011;51976;47.332;9.404;2023-04-24T08:33:53;1.60;;;0.77;;
65375;SDS011;51976;47.332;9.404;2023-04-24T08:36:26;0.43;;;0.30;;
65375;SDS011;51976;47.332;9.404;2023-04-24T08:39:01;1.30;;;0.30;;
65375;SDS011;51976;47.332;9.404;2023-04-24T08:41:38;0.40;;;0.20;;
65375;SDS011;51976;47.332;9.404;2023-04-24T08:44:29;0.90;;;0.40;;
65375;SDS011;51976;47.332;9.404;2023-04-24T08:49:38;1.10;;;0.32;;
65375;SDS011;51976;47.332;9.404;2023-04-24T08:52:30;1.92;;;0.60;;
65375;SDS011;51976;47.332;9.404;2023-04-24T08:55:18;2.22;;;0.93;;
65375;SDS011;51976;47.332;9.404;2023-04-24T08:57:57;7.45;;;3.53;;
65375;SDS011;51976;47.332;9.404;2023-04-24T09:00:50;5.30;;;2.70;;
65375;SDS011;51976;47.332;9.404;2023-04-24T09:03:38;5.32;;;1.80;;
65375;SDS011;51976;47.332;9.404;2023-04-24T09:06:10;5.82;;;2.97;;
65375;SDS011;51976;47.332;9.404;2023-04-24T09:08:56;6.97;;;3.70;;
65375;SDS011;51976;47.332;9.404;2023-04-24T09:11:33;5.22;;;1.40;;
65375;SDS011;51976;47.332;9.404;2023-04-24T09:14:05;3.92;;;1.63;;
65375;SDS011;51976;47.332;9.404;2023-04-24T09:16:32;4.13;;;1.80;;
65375;SDS011;51976;47.332;9.404;2023-04-24T09:18:58;8.07;;;2.22;;
65375;SDS011;51976;47.332;9.404;2023-04-24T09:21:23;5.13;;;2.20;;
65375;SDS011;51976;47.332;9.404;2023-04-24T09:23:58;2.25;;;1.50;;
65375;SDS011;51976;47.332;9.404;2023-04-24T09:26:25;4.20;;;1.70;;
65375;SDS011;51976;47.332;9.404;2023-04-24T09:28:53;1.98;;;1.00;;
65375;SDS011;51976;47.332;9.404;2023-04-24T09:31:19;3.95;;;1.20;;
65375;SDS011;51976;47.332;9.404;2023-04-24T09:33:57;1.65;;;0.60;;
65375;SDS011;51976;47.332;9.404;2023-04-24T09:36:27;2.08;;;0.80;;
65375;SDS011;51976;47.332;9.404;2023-04-24T09:39:00;0.68;;;0.40;;
65375;SDS011;51976;47.332;9.404;2023-04-24T09:41:27;1.48;;;0.55;;
65375;SDS011;51976;47.332;9.404;2023-04-24T09:43:54;1.10;;;0.75;;
65375;SDS011;51976;47.332;9.404;2023-04-24T09:46:21;1.98;;;0.90;;
65375;SDS011;51976;47.332;9.404;2023-04-24T09:48:54;1.33;;;0.60;;
65375;SDS011;51976;47.332;9.404;2023-04-24T09:51:24;1.83;;;0.80;;
65375;SDS011;51976;47.332;9.404;2023-04-24T09:54:13;3.83;;;1.00;;
65375;SDS011;51976;47.332;9.404;2023-04-24T09:56:47;1.80;;;1.00;;
65375;SDS011;51976;47.332;9.404;2023-04-24T09:59:14;3.17;;;0.93;;
65375;SDS011;51976;47.332;9.404;2023-04-24T10:01:42;1.85;;;1.00;;
65375;SDS011;51976;47.332;9.404;2023-04-24T10:04:19;2.85;;;0.93;;
65375;SDS011;51976;47.332;9.404;2023-04-24T10:06:55;3.03;;;1.00;;
65375;SDS011;51976;47.332;9.404;2023-04-24T10:09:24;2.50;;;1.20;;
65375;SDS011;51976;47.332;9.404;2023-04-24T10:11:55;2.05;;;1.02;;
65375;SDS011;51976;47.332;9.404;2023-04-24T10:14:37;2.17;;;1.30;;
65375;SDS011;51976;47.332;9.404;2023-04-24T10:17:04;2.95;;;1.70;;
65375;SDS011;51976;47.332;9.404;2023-04-24T10:19:40;2.78;;;1.10;;
65375;SDS011;51976;47.332;9.404;2023-04-24T10:22:09;5.40;;;2.78;;
65375;SDS011;51976;47.332;9.404;2023-04-24T10:25:10;1.98;;;1.20;;
65375;SDS011;51976;47.332;9.404;2023-04-24T10:27:53;2.95;;;1.30;;
65375;SDS011;51976;47.332;9.404;2023-04-24T10:30:45;9.20;;;2.17;;
65375;SDS011;51976;47.332;9.404;2023-04-24T10:33:23;3.05;;;1.48;;
65375;SDS011;51976;47.332;9.404;2023-04-24T10:35:49;3.25;;;1.70;;
65375;SDS011;51976;47.332;9.404;2023-04-24T10:38:18;4.03;;;1.67;;
65375;SDS011;51976;47.332;9.404;2023-04-24T10:41:08;6.05;;;2.83;;
65375;SDS011;51976;47.332;9.404;2023-04-24T10:44:03;5.40;;;2.90;;
65375;SDS011;51976;47.332;9.404;2023-04-24T11:00:22;4.97;;;2.20;;
65375;SDS011;51976;47.332;9.404;2023-04-24T11:06:44;8.40;;;4.00;;
65375;SDS011;51976;47.332;9.404;2023-04-24T11:12:28;4.93;;;2.95;;
65375;SDS011;51976;47.332;9.404;2023-04-24T11:27:39;4.68;;;1.48;;
65375;SDS011;51976;47.332;9.404;2023-04-24T11:30:21;2.47;;;1.40;;
65375;SDS011;51976;47.332;9.404;2023-04-24T11:32:52;3.80;;;1.70;;
65375;SDS011;51976;47.332;9.404;2023-04-24T11:35:19;4.50;;;2.22;;
65375;SDS011;51976;47.332;9.404;2023-04-24T11:37:47;5.38;;;2.20;;
65375;SDS011;51976;47.332;9.404;2023-04-24T11:40:30;3.78;;;1.85;;
65375;SDS011;51976;47.332;9.404;2023-04-24T11:42:56;3.42;;;1.58;;
65375;SDS011;51976;47.332;9.404;2023-04-24T11:45:26;3.47;;;1.23;;
65375;SDS011;51976;47.332;9.404;2023-04-24T11:47:55;2.60;;;1.45;;
65375;SDS011;51976;47.332;9.404;2023-04-24T11:50:22;1.92;;;1.17;;
65375;SDS011;51976;47.332;9.404;2023-04-24T11:52:50;1.92;;;1.30;;
65375;SDS011;51976;47.332;9.404;2023-04-24T11:55:26;2.97;;;1.55;;
65375;SDS011;51976;47.332;9.404;2023-04-24T11:57:53;3.25;;;1.02;;
65375;SDS011;51976;47.332;9.404;2023-04-24T12:00:27;2.05;;;1.13;;
65375;SDS011;51976;47.332;9.404;2023-04-24T12:03:06;4.50;;;1.58;;
65375;SDS011;51976;47.332;9.404;2023-04-24T12:05:32;1.50;;;1.02;;
65375;SDS011;51976;47.332;9.404;2023-04-24T12:07:59;1.98;;;1.40;;
65375;SDS011;51976;47.332;9.404;2023-04-24T12:10:26;4.70;;;1.50;;
65375;SDS011;51976;47.332;9.404;2023-04-24T12:12:59;3.78;;;1.20;;
65375;SDS011;51976;47.332;9.404;2023-04-24T12:15:27;2.17;;;1.40;;
65375;SDS011;51976;47.332;9.404;2023-04-24T12:17:54;3.35;;;1.27;;
65375;SDS011;51976;47.332;9.404;2023-04-24T12:20:26;4.68;;;1.38;;
65375;SDS011;51976;47.332;9.404;2023-04-24T12:22:55;3.10;;;1.60;;
65375;SDS011;51976;47.332;9.404;2023-04-24T12:25:23;1.95;;;1.55;;
65375;SDS011;51976;47.332;9.404;2023-04-24T12:27:53;2.60;;;1.02;;
65375;SDS011;51976;47.332;9.404;2023-04-24T12:30:41;2.78;;;1.33;;
65375;SDS011;51976;47.332;9.404;2023-04-24T12:33:09;2.25;;;1.65;;
65375;SDS011;51976;47.332;9.404;2023-04-24T12:35:35;4.80;;;1.60;;
65375;SDS011;51976;47.332;9.404;2023-04-24T12:38:07;4.70;;;1.35;;
65375;SDS011;51976;47.332;9.404;2023-04-24T12:40:37;1.88;;;1.13;;
65375;SDS011;51976;47.332;9.404;2023-04-24T12:43:12;2.10;;;1.20;;
65375;SDS011;51976;47.332;9.404;2023-04-24T12:45:39;2.67;;;1.60;;
65375;SDS011;51976;47.332;9.404;2023-04-24T12:48:04;3.75;;;1.13;;
65375;SDS011;51976;47.332;9.404;2023-04-24T12:50:30;3.03;;;1.17;;
65375;SDS011;51976;47.332;9.404;2023-04-24T12:52:55;2.03;;;1.13;;
65375;SDS011;51976;47.332;9.404;2023-04-24T12:55:24;2.63;;;1.27;;
65375;SDS011;51976;47.332;9.404;2023-04-24T12:57:50;3.30;;;1.30;;
65375;SDS011;51976;47.332;9.404;2023-04-24T13:00:16;4.03;;;1.35;;
65375;SDS011;51976;47.332;9.404;2023-04-24T13:02:42;3.28;;;1.50;;
65375;SDS011;51976;47.332;9.404;2023-04-24T13:05:08;2.67;;;1.52;;
65375;SDS011;51976;47.332;9.404;2023-04-24T13:07:33;5.15;;;1.50;;
65375;SDS011;51976;47.332;9.404;2023-04-24T13:09:59;4.35;;;1.20;;
65375;SDS011;51976;47.332;9.404;2023-04-24T13:12:24;1.70;;;0.77;;
65375;SDS011;51976;47.332;9.404;2023-04-24T13:14:51;1.83;;;0.95;;
65375;SDS011;51976;47.332;9.404;2023-04-24T13:17:23;1.58;;;0.93;;
65375;SDS011;51976;47.332;9.404;2023-04-24T13:19:54;3.15;;;0.90;;
65375;SDS011;51976;47.332;9.404;2023-04-24T13:22:20;3.92;;;1.35;;
65375;SDS011;51976;47.332;9.404;2023-04-24T13:24:46;2.65;;;0.95;;
65375;SDS011;51976;47.332;9.404;2023-04-24T13:27:13;2.85;;;1.17;;
65375;SDS011;51976;47.332;9.404;2023-04-24T13:29:39;1.77;;;1.08;;
65375;SDS011;51976;47.332;9.404;2023-04-24T13:32:30;2.15;;;1.30;;
65375;SDS011;51976;47.332;9.404;2023-04-24T13:35:52;2.65;;;1.20;;
65375;SDS011;51976;47.332;9.404;2023-04-24T13:47:28;4.70;;;1.85;;
65375;SDS011;51976;47.332;9.404;2023-04-24T13:48:48;3.80;;;2.58;;
65375;SDS011;51976;47.332;9.404;2023-04-24T13:51:14;2.95;;;1.50;;
65375;SDS011;51976;47.332;9.404;2023-04-24T13:53:40;4.35;;;1.45;;
65375;SDS011;51976;47.332;9.404;2023-04-24T13:56:06;4.43;;;2.70;;
65375;SDS011;51976;47.332;9.404;2023-04-24T13:58:31;2.40;;;1.30;;
65375;SDS011;51976;47.332;9.404;2023-04-24T14:00:57;7.80;;;2.38;;
65375;SDS011;51976;47.332;9.404;2023-04-24T14:03:26;9.68;;;5.00;;
65375;SDS011;51976;47.332;9.404;2023-04-24T14:05:51;5.93;;;3.28;;
65375;SDS011;51976;47.332;9.404;2023-04-24T14:08:17;2.17;;;1.42;;
65375;SDS011;51976;47.332;9.404;2023-04-24T14:10:42;3.92;;;1.92;;
65375;SDS011;51976;47.332;9.404;2023-04-24T14:13:08;4.40;;;1.98;;
65375;SDS011;51976;47.332;9.404;2023-04-24T14:15:35;1.50;;;0.85;;
65375;SDS011;51976;47.332;9.404;2023-04-24T14:18:00;2.33;;;1.40;;
65375;SDS011;51976;47.332;9.404;2023-04-24T14:20:30;3.33;;;1.70;;
65375;SDS011;51976;47.332;9.404;2023-04-24T14:23:36;6.13;;;1.70;;
65375;SDS011;51976;47.332;9.404;2023-04-24T14:26:05;3.63;;;2.20;;
65375;SDS011;51976;47.332;9.404;2023-04-24T14:28:44;3.95;;;2.00;;
65375;SDS011;51976;47.332;9.404;2023-04-24T14:31:09;5.13;;;3.17;;
65375;SDS011;51976;47.332;9.404;2023-04-24T14:33:35;3.78;;;1.60;;
65375;SDS011;51976;47.332;9.404;2023-04-24T14:36:01;4.95;;;2.35;;
65375;SDS011;51976;47.332;9.404;2023-04-24T14:38:27;5.53;;;3.20;;
65375;SDS011;51976;47.332;9.404;2023-04-24T14:40:53;4.80;;;2.83;;
65375;SDS011;51976;47.332;9.404;2023-04-24T14:43:18;3.72;;;2.00;;
65375;SDS011;51976;47.332;9.404;2023-04-24T14:45:44;3.72;;;1.92;;
65375;SDS011;51976;47.332;9.404;2023-04-24T14:48:10;3.22;;;1.80;;
65375;SDS011;51976;47.332;9.404;2023-04-24T14:50:38;4.38;;;1.52;;
65375;SDS011;51976;47.332;9.404;2023-04-24T14:53:30;8.32;;;2.85;;
65375;SDS011;51976;47.332;9.404;2023-04-24T14:55:55;6.28;;;2.58;;
65375;SDS011;51976;47.332;9.404;2023-04-24T14:58:21;7.82;;;5.40;;
65375;SDS011;51976;47.332;9.404;2023-04-24T15:00:46;6.47;;;4.05;;
65375;SDS011;51976;47.332;9.404;2023-04-24T15:03:14;4.63;;;3.03;;
65375;SDS011;51976;47.332;9.404;2023-04-24T15:05:40;5.78;;;2.33;;
65375;SDS011;51976;47.332;9.404;2023-04-24T15:08:09;2.92;;;2.00;;
65375;SDS011;51976;47.332;9.404;2023-04-24T15:10:34;3.22;;;2.05;;
65375;SDS011;51976;47.332;9.404;2023-04-24T15:13:02;4.07;;;1.83;;
65375;SDS011;51976;47.332;9.404;2023-04-24T15:15:28;3.08;;;1.83;;
65375;SDS011;51976;47.332;9.404;2023-04-24T15:17:53;8.98;;;2.70;;
65375;SDS011;51976;47.332;9.404;2023-04-24T15:20:19;3.40;;;2.00;;
65375;SDS011;51976;47.332;9.404;2023-04-24T15:22:44;2.08;;;1.08;;
65375;SDS011;51976;47.332;9.404;2023-04-24T15:25:10;1.88;;;1.10;;
65375;SDS011;51976;47.332;9.404;2023-04-24T15:27:39;4.28;;;2.15;;
65375;SDS011;51976;47.332;9.404;2023-04-24T15:30:06;3.00;;;1.73;;
65375;SDS011;51976;47.332;9.404;2023-04-24T15:32:32;2.00;;;1.30;;
65375;SDS011;51976;47.332;9.404;2023-04-24T15:34:57;3.28;;;1.60;;
65375;SDS011;51976;47.332;9.404;2023-04-24T15:37:25;1.63;;;1.00;;
65375;SDS011;51976;47.332;9.404;2023-04-24T15:39:51;2.42;;;0.75;;
65375;SDS011;51976;47.332;9.404;2023-04-24T15:42:16;1.60;;;0.80;;
65375;SDS011;51976;47.332;9.404;2023-04-24T15:44:42;4.25;;;1.00;;
65375;SDS011;51976;47.332;9.404;2023-04-24T15:47:10;2.05;;;0.98;;